Terminal Aerodrome Forecast
Issued by NWS

Home | Current Version | Previous Version | Text Only | Print | Product List | Glossary On
Versions: 1 2 3 4 5 6 7 8 9 10 11 12 13 14 15 16
000
FTPQ31 PGUM 172334
TAFGUM
TAF

TAF
PGWT 172334Z 1800/1824 23015G25KT 6SM SHRA SCT010 BKN025 OVC090
      TEMPO 1800/1804 2SM +SHRA SCT005 OVC010
     FM180800 28015G25KT P6SM SHRA SCT011 SCT025 BKN090=

USA.gov is the U.S. government's official web portal to all federal, state and local government web resources and services.